createdAt,value
2018-12-08T00:01:33.982Z,90.08
2018-12-08T00:04:02.373Z,89.91
2018-12-08T00:06:30.726Z,89.86
2018-12-08T00:08:59.508Z,90.01
2018-12-08T00:11:27.889Z,89.84
2018-12-08T00:13:56.757Z,89.84
2018-12-08T00:16:24.866Z,89.92
2018-12-08T00:18:53.197Z,89.87
2018-12-08T00:21:21.531Z,89.92
2018-12-08T00:23:49.872Z,89.88
2018-12-08T00:26:18.233Z,89.70
2018-12-08T00:28:46.544Z,89.83
2018-12-08T00:31:26.597Z,89.95
2018-12-08T00:33:54.954Z,89.94
2018-12-08T00:36:23.299Z,90.09
2018-12-08T00:38:51.630Z,90.22
2018-12-08T00:41:19.985Z,90.33
2018-12-08T00:43:48.501Z,90.36
2018-12-08T00:46:16.857Z,90.43
2018-12-08T00:48:45.427Z,90.52
2018-12-08T00:51:13.740Z,90.77
2018-12-08T00:53:41.843Z,91.07
2018-12-08T00:56:10.179Z,90.81
2018-12-08T00:58:38.518Z,90.83
2018-12-08T01:01:06.852Z,90.99
2018-12-08T01:03:35.405Z,91.08
2018-12-08T01:06:03.541Z,92.07
2018-12-08T01:08:31.873Z,92.65
2018-12-08T01:11:00.204Z,93.88
2018-12-08T01:13:28.549Z,93.23
2018-12-08T01:15:56.894Z,93.27
2018-12-08T01:18:25.288Z,93.15
2018-12-08T01:20:53.816Z,93.01
2018-12-08T01:23:22.158Z,93.29
2018-12-08T01:25:50.509Z,93.24
2018-12-08T01:28:18.868Z,92.92
2018-12-08T01:30:47.188Z,92.26
2018-12-08T01:33:15.564Z,92.06
2018-12-08T01:35:43.878Z,92.05
2018-12-08T01:38:12.229Z,92.21
2018-12-08T01:40:40.559Z,92.14
2018-12-08T01:43:08.893Z,92.10
2018-12-08T01:45:37.454Z,92.10
2018-12-08T01:48:05.550Z,92.11
2018-12-08T01:50:33.897Z,92.16
2018-12-08T01:53:02.229Z,92.13
2018-12-08T01:55:30.581Z,92.23
2018-12-08T01:57:58.936Z,92.21
2018-12-08T02:00:27.265Z,92.24
2018-12-08T02:02:55.588Z,92.14
2018-12-08T02:05:23.921Z,92.08
2018-12-08T02:07:52.280Z,92.10
2018-12-08T02:10:20.619Z,91.99
2018-12-08T02:12:48.954Z,91.86
2018-12-08T02:15:17.289Z,91.79
2018-12-08T02:17:45.624Z,91.74
2018-12-08T02:20:14.755Z,91.73
2018-12-08T02:22:43.082Z,91.75
2018-12-08T02:25:11.429Z,91.79
2018-12-08T02:27:39.752Z,91.83
2018-12-08T02:30:08.087Z,91.81
2018-12-08T02:32:36.449Z,91.85
2018-12-08T02:35:04.772Z,91.81
2018-12-08T02:37:33.105Z,91.78
2018-12-08T02:40:01.430Z,91.71
2018-12-08T02:42:29.746Z,91.63
2018-12-08T02:44:58.114Z,91.58
2018-12-08T02:47:26.439Z,91.49
2018-12-08T02:49:54.750Z,91.53
2018-12-08T02:52:23.110Z,91.57
2018-12-08T02:54:51.435Z,91.58
2018-12-08T02:57:19.763Z,91.63
2018-12-08T02:59:48.330Z,91.70
2018-12-08T03:02:16.458Z,91.77
2018-12-08T03:04:44.779Z,91.72
2018-12-08T03:07:13.140Z,91.68
2018-12-08T03:09:41.491Z,91.74
2018-12-08T03:12:09.840Z,91.75
2018-12-08T03:14:38.382Z,91.72
2018-12-08T03:17:06.498Z,91.76
2018-12-08T03:19:34.824Z,91.80
2018-12-08T03:22:03.189Z,91.99
2018-12-08T03:24:31.539Z,91.81
2018-12-08T03:26:59.869Z,91.85
2018-12-08T03:29:28.211Z,91.90
2018-12-08T03:31:56.538Z,91.87
2018-12-08T03:34:24.856Z,91.95
2018-12-08T03:36:53.171Z,91.92
2018-12-08T03:39:21.509Z,91.92
2018-12-08T03:41:49.873Z,91.95
2018-12-08T03:44:18.207Z,91.74
2018-12-08T03:46:46.528Z,91.75
2018-12-08T03:49:14.854Z,91.69
2018-12-08T03:51:43.180Z,91.74
2018-12-08T03:54:11.528Z,91.68
2018-12-08T03:56:39.853Z,91.57
2018-12-08T03:59:08.188Z,91.55
2018-12-08T04:01:36.528Z,91.63
2018-12-08T04:04:04.866Z,91.29
2018-12-08T04:06:33.192Z,91.19
2018-12-08T04:09:01.539Z,91.05
2018-12-08T04:11:29.926Z,91.03
2018-12-08T04:13:58.289Z,91.09
2018-12-08T04:16:26.608Z,91.04
2018-12-08T04:18:54.938Z,91.04
2018-12-08T04:21:23.248Z,91.12
2018-12-08T04:23:51.571Z,91.04
2018-12-08T04:26:20.123Z,91.10
2018-12-08T04:28:48.493Z,91.11
2018-12-08T04:31:16.829Z,91.10
2018-12-08T04:33:45.161Z,90.98
2018-12-08T04:36:13.485Z,90.98
2018-12-08T04:38:41.822Z,90.63
2018-12-08T04:41:10.138Z,87.80
2018-12-08T04:43:38.457Z,86.91
2018-12-08T04:46:06.811Z,87.34
2018-12-08T04:48:35.127Z,87.05
2018-12-08T04:51:03.452Z,87.32
2018-12-08T04:53:31.759Z,87.07
2018-12-08T04:56:00.088Z,86.99
2018-12-08T04:58:28.447Z,87.18
2018-12-08T05:00:57.005Z,87.40
2018-12-08T05:03:25.117Z,87.61
2018-12-08T05:05:53.429Z,87.37
2018-12-08T05:08:22.010Z,87.60
2018-12-08T05:10:50.322Z,87.62
2018-12-08T05:13:18.715Z,87.84
2018-12-08T05:15:47.051Z,88.03
2018-12-08T05:18:15.382Z,88.24
2018-12-08T05:20:43.714Z,88.08
2018-12-08T05:23:12.040Z,87.74
2018-12-08T05:25:40.379Z,87.77
2018-12-08T05:28:08.697Z,87.50
2018-12-08T05:30:37.031Z,87.00
2018-12-08T05:33:05.365Z,86.99
2018-12-08T05:35:33.696Z,86.95
2018-12-08T05:38:02.024Z,87.04
2018-12-08T05:40:30.362Z,87.08
2018-12-08T05:42:58.726Z,86.95
2018-12-08T05:45:27.087Z,86.61
2018-12-08T05:47:55.391Z,86.56
2018-12-08T05:50:23.716Z,86.47
2018-12-08T05:52:52.047Z,86.41
2018-12-08T05:55:20.369Z,86.14
2018-12-08T05:57:48.705Z,85.65
2018-12-08T06:00:17.047Z,85.21
2018-12-08T06:02:45.369Z,84.63
2018-12-08T06:05:13.677Z,84.78
2018-12-08T06:07:41.997Z,84.49
2018-12-08T06:10:10.331Z,84.41
2018-12-08T06:12:38.640Z,84.07
2018-12-08T06:15:06.986Z,83.97
2018-12-08T06:17:35.301Z,84.18
2018-12-08T06:20:03.617Z,84.29
2018-12-08T06:22:32.122Z,83.86
2018-12-08T06:25:00.440Z,83.65
2018-12-08T06:27:28.762Z,83.50
2018-12-08T06:29:57.101Z,83.54
2018-12-08T06:32:25.417Z,83.64
2018-12-08T06:34:53.754Z,83.67
2018-12-08T06:37:22.082Z,83.67
2018-12-08T06:39:50.433Z,83.73
2018-12-08T06:42:18.762Z,83.82
2018-12-08T06:44:47.103Z,83.70
2018-12-08T06:47:15.406Z,84.07
2018-12-08T06:49:43.748Z,84.10
2018-12-08T06:52:12.177Z,84.06
2018-12-08T06:54:40.493Z,84.31
2018-12-08T06:57:08.825Z,84.21
2018-12-08T06:59:37.123Z,84.05
2018-12-08T07:02:05.442Z,84.09
2018-12-08T07:04:33.763Z,83.88
2018-12-08T07:07:02.112Z,83.87
2018-12-08T07:09:30.630Z,83.40
2018-12-08T07:11:59.002Z,83.26
2018-12-08T07:14:27.363Z,83.18
2018-12-08T07:16:55.700Z,83.21
2018-12-08T07:19:24.035Z,83.27
2018-12-08T07:21:52.357Z,83.46
2018-12-08T07:24:20.709Z,83.36
2018-12-08T07:26:49.030Z,83.06
2018-12-08T07:29:17.333Z,82.84
2018-12-08T07:31:45.665Z,83.05
2018-12-08T07:34:13.990Z,83.19
2018-12-08T07:36:42.320Z,83.26
2018-12-08T07:39:10.644Z,83.44
2018-12-08T07:41:38.977Z,83.67
2018-12-08T07:44:07.303Z,83.76
2018-12-08T07:46:35.874Z,83.72
2018-12-08T07:49:04.491Z,83.64
2018-12-08T07:51:33.074Z,83.56
2018-12-08T07:54:01.307Z,83.28
2018-12-08T07:56:29.848Z,83.14
2018-12-08T07:58:58.174Z,83.15
2018-12-08T08:01:26.766Z,83.06
2018-12-08T08:03:55.333Z,83.08
2018-12-08T08:06:24.352Z,82.82
2018-12-08T08:08:52.693Z,82.70
2018-12-08T08:11:21.008Z,82.42
2018-12-08T08:13:49.353Z,81.80
2018-12-08T08:16:17.676Z,81.95
2018-12-08T08:18:46.034Z,81.60
2018-12-08T08:21:14.348Z,81.34
2018-12-08T08:23:42.741Z,81.32
2018-12-08T08:26:11.078Z,80.59
2018-12-08T08:28:39.434Z,80.74
2018-12-08T08:31:07.762Z,80.11
2018-12-08T08:33:36.099Z,80.00
2018-12-08T08:36:04.422Z,80.35
2018-12-08T08:38:32.761Z,79.56
2018-12-08T08:41:01.111Z,79.07
2018-12-08T08:43:29.420Z,78.66
2018-12-08T08:45:58.351Z,78.51
2018-12-08T08:48:26.677Z,78.27
2018-12-08T08:50:55.269Z,78.39
2018-12-08T08:53:23.592Z,78.20
2018-12-08T08:55:51.914Z,78.12
2018-12-08T08:58:20.243Z,78.07
2018-12-08T09:00:49.286Z,77.79
2018-12-08T09:03:17.580Z,77.48
2018-12-08T09:05:45.915Z,76.98
2018-12-08T09:08:14.238Z,76.89
2018-12-08T09:10:42.556Z,77.19
2018-12-08T09:13:10.895Z,76.65
2018-12-08T09:15:39.243Z,76.04
2018-12-08T09:18:07.784Z,75.48
2018-12-08T09:20:36.104Z,74.61
2018-12-08T09:23:04.429Z,74.21
2018-12-08T09:25:34.578Z,72.10
2018-12-08T09:28:01.568Z,72.90
2018-12-08T09:30:29.881Z,71.67
2018-12-08T09:32:58.188Z,71.68
2018-12-08T09:35:26.506Z,72.49
2018-12-08T09:37:54.829Z,72.80
2018-12-08T09:40:23.483Z,71.71
2018-12-08T09:42:51.816Z,71.12
2018-12-08T09:45:20.137Z,71.78
2018-12-08T09:47:48.451Z,71.83
2018-12-08T09:50:17.124Z,71.73
2018-12-08T09:52:45.421Z,71.80
2018-12-08T09:55:13.737Z,72.24
2018-12-08T09:57:42.074Z,72.28
2018-12-08T10:00:10.393Z,72.56
2018-12-08T10:02:40.101Z,72.40
2018-12-08T10:05:07.867Z,72.64
2018-12-08T10:07:36.180Z,72.61
2018-12-08T10:10:04.536Z,72.36
2018-12-08T10:12:32.877Z,72.71
2018-12-08T10:15:01.209Z,72.58
2018-12-08T10:17:29.531Z,72.38
2018-12-08T10:19:58.079Z,71.96
2018-12-08T10:22:27.868Z,71.85
2018-12-08T10:24:54.522Z,71.72
2018-12-08T10:27:22.857Z,71.48
2018-12-08T10:29:51.188Z,71.50
2018-12-08T10:32:19.522Z,71.81
2018-12-08T10:34:47.836Z,71.38
2018-12-08T10:37:16.148Z,71.22
2018-12-08T10:39:44.671Z,71.14
2018-12-08T10:42:12.784Z,71.36
2018-12-08T10:44:41.107Z,70.82
2018-12-08T10:47:09.603Z,70.43
2018-12-08T10:49:37.918Z,70.04
2018-12-08T10:52:06.360Z,70.55
2018-12-08T10:54:34.668Z,69.79
2018-12-08T10:57:03.001Z,68.90
2018-12-08T10:59:31.476Z,68.90
2018-12-08T11:01:59.813Z,68.26
2018-12-08T11:04:28.132Z,68.11
2018-12-08T11:06:56.563Z,68.01
2018-12-08T11:09:25.669Z,67.90
2018-12-08T11:11:53.974Z,68.22
2018-12-08T11:14:22.365Z,67.83
2018-12-08T11:16:50.761Z,67.96
2018-12-08T11:19:19.162Z,67.56
2018-12-08T11:21:47.485Z,67.90
2018-12-08T11:24:15.975Z,67.44
2018-12-08T11:26:44.384Z,67.65
2018-12-08T11:29:12.733Z,67.26
2018-12-08T11:31:41.160Z,67.02
2018-12-08T11:34:09.480Z,66.69
2018-12-08T11:36:37.797Z,66.16
2018-12-08T11:39:06.168Z,65.99
2018-12-08T11:41:34.795Z,65.18
2018-12-08T11:44:02.956Z,65.25
2018-12-08T11:46:31.277Z,64.80
2018-12-08T11:48:59.584Z,64.62
2018-12-08T11:51:28.013Z,63.85
2018-12-08T11:53:56.347Z,64.29
2018-12-08T11:56:24.669Z,64.15
2018-12-08T11:58:53.021Z,64.39
2018-12-08T12:01:21.405Z,63.71
2018-12-08T12:03:49.791Z,63.73
2018-12-08T12:06:18.117Z,64.07
2018-12-08T12:08:46.444Z,64.18
2018-12-08T12:11:14.782Z,64.11
2018-12-08T12:13:43.118Z,64.50
2018-12-08T12:16:11.558Z,64.43
2018-12-08T12:18:39.882Z,64.44
2018-12-08T12:21:08.273Z,64.79
2018-12-08T12:23:36.609Z,64.89
2018-12-08T12:26:05.013Z,64.42
2018-12-08T12:28:33.346Z,64.74
2018-12-08T12:31:02.266Z,63.86
2018-12-08T12:33:30.622Z,63.35
2018-12-08T12:35:58.931Z,63.41
2018-12-08T12:38:27.351Z,63.05
2018-12-08T12:40:55.704Z,63.10
2018-12-08T12:43:24.115Z,63.05
2018-12-08T12:45:52.440Z,62.98
2018-12-08T12:48:21.010Z,62.95
2018-12-08T12:50:49.997Z,63.51
2018-12-08T12:53:19.129Z,63.81
2018-12-08T12:55:48.222Z,64.25
2018-12-08T12:58:16.548Z,64.46
2018-12-08T13:00:45.289Z,64.59
2018-12-08T13:03:13.885Z,64.98
2018-12-08T13:05:42.225Z,65.32
2018-12-08T13:08:10.536Z,65.79
2018-12-08T13:10:38.861Z,66.18
2018-12-08T13:13:07.192Z,66.45
2018-12-08T13:15:35.528Z,66.60
2018-12-08T13:18:03.862Z,66.78
2018-12-08T13:20:32.186Z,66.96
2018-12-08T13:23:00.551Z,67.42
2018-12-08T13:25:28.836Z,67.31
2018-12-08T13:27:57.210Z,67.51
2018-12-08T13:30:26.310Z,67.71
2018-12-08T13:32:54.633Z,67.72
2018-12-08T13:35:24.522Z,67.87
2018-12-08T13:37:52.847Z,67.98
2018-12-08T13:40:21.158Z,68.15
2018-12-08T13:42:49.462Z,68.26
2018-12-08T13:45:17.784Z,68.33
2018-12-08T13:47:46.101Z,68.41
2018-12-08T13:50:14.429Z,68.42
2018-12-08T13:52:42.943Z,68.46
2018-12-08T13:55:11.616Z,68.53
2018-12-08T13:57:39.928Z,68.56
2018-12-08T14:00:08.229Z,68.65
2018-12-08T14:02:36.923Z,68.74
2018-12-08T14:05:05.228Z,68.70
2018-12-08T14:07:33.548Z,68.73
2018-12-08T14:10:01.867Z,68.71
2018-12-08T14:12:30.192Z,68.81
2018-12-08T14:14:58.539Z,68.82
2018-12-08T14:17:26.858Z,68.81
2018-12-08T14:19:55.173Z,68.93
2018-12-08T14:22:23.524Z,69.04
2018-12-08T14:24:51.853Z,69.04
2018-12-08T14:27:20.181Z,69.12
2018-12-08T14:29:48.547Z,69.15
2018-12-08T14:32:16.871Z,69.24
2018-12-08T14:34:45.194Z,69.34
2018-12-08T14:37:13.522Z,69.20
2018-12-08T14:39:41.828Z,69.28
2018-12-08T14:42:10.145Z,69.25
2018-12-08T14:44:38.512Z,69.35
2018-12-08T14:47:06.936Z,69.42
2018-12-08T14:49:35.556Z,69.46
2018-12-08T14:52:03.864Z,69.47
2018-12-08T14:54:32.225Z,69.62
2018-12-08T14:57:00.559Z,69.65
2018-12-08T14:59:28.875Z,69.87
2018-12-08T15:01:57.191Z,69.83
2018-12-08T15:04:25.512Z,69.95
2018-12-08T15:06:53.901Z,69.95
2018-12-08T15:09:22.304Z,70.06
2018-12-08T15:11:50.724Z,70.07
2018-12-08T15:14:19.208Z,70.30
2018-12-08T15:16:47.557Z,70.40
2018-12-08T15:19:15.876Z,70.53
2018-12-08T15:21:44.227Z,70.60
2018-12-08T15:24:12.552Z,70.71
2018-12-08T15:26:41.220Z,70.73
2018-12-08T15:29:09.561Z,70.83
2018-12-08T15:31:37.896Z,71.01
2018-12-08T15:34:06.329Z,71.18
2018-12-08T15:36:34.743Z,71.37
2018-12-08T15:39:03.066Z,71.36
2018-12-08T15:41:31.393Z,71.39
2018-12-08T15:43:59.716Z,71.62
2018-12-08T15:46:28.053Z,71.56
2018-12-08T15:48:56.379Z,71.46
2018-12-08T15:51:24.705Z,71.58
2018-12-08T15:53:53.010Z,71.55
2018-12-08T15:56:21.326Z,71.52
2018-12-08T15:58:49.716Z,71.56
2018-12-08T16:01:18.025Z,71.60
2018-12-08T16:03:46.361Z,71.69
2018-12-08T16:06:14.683Z,71.64
2018-12-08T16:08:43.005Z,71.66
2018-12-08T16:11:11.355Z,71.67
2018-12-08T16:13:39.724Z,71.53
2018-12-08T16:16:08.119Z,71.56
2018-12-08T16:18:36.429Z,71.59
2018-12-08T16:21:04.752Z,71.58
2018-12-08T16:23:33.186Z,71.74
2018-12-08T16:26:01.408Z,71.75
2018-12-08T16:28:29.714Z,71.69
2018-12-08T16:30:58.036Z,71.60
2018-12-08T16:33:26.385Z,71.53
2018-12-08T16:35:55.304Z,71.66
2018-12-08T16:38:23.631Z,71.73
2018-12-08T16:40:51.989Z,71.75
2018-12-08T16:43:20.316Z,71.84
2018-12-08T16:45:48.642Z,72.00
2018-12-08T16:48:16.962Z,71.98
2018-12-08T16:50:45.309Z,72.02
2018-12-08T16:53:13.651Z,72.04
2018-12-08T16:55:42.022Z,72.13
2018-12-08T16:58:10.351Z,72.03
2018-12-08T17:00:38.686Z,72.03
2018-12-08T17:03:07.336Z,72.20
2018-12-08T17:05:35.419Z,72.23
2018-12-08T17:08:04.584Z,72.34
2018-12-08T17:10:33.198Z,72.32
2018-12-08T17:13:01.529Z,72.21
2018-12-08T17:15:29.845Z,72.24
2018-12-08T17:17:58.244Z,72.23
2018-12-08T17:20:26.566Z,72.17
2018-12-08T17:22:54.889Z,72.26
2018-12-08T17:25:23.214Z,72.24
2018-12-08T17:27:51.558Z,72.21
2018-12-08T17:30:20.023Z,72.23
2018-12-08T17:32:48.424Z,72.22
2018-12-08T17:35:16.849Z,72.17
2018-12-08T17:37:45.286Z,72.12
2018-12-08T17:40:13.856Z,72.09
2018-12-08T17:42:42.247Z,72.11
2018-12-08T17:45:11.694Z,72.06
2018-12-08T17:47:38.919Z,72.03
2018-12-08T17:50:07.257Z,72.07
2018-12-08T17:52:35.573Z,72.02
2018-12-08T17:57:40.686Z,72.23
2018-12-08T18:00:09.017Z,72.23
2018-12-08T18:02:37.342Z,72.31
2018-12-08T18:05:05.694Z,72.38
2018-12-08T18:07:35.006Z,72.49
2018-12-08T18:10:02.726Z,72.58
2018-12-08T18:12:31.079Z,72.63
2018-12-08T18:14:59.389Z,72.72
2018-12-08T18:17:27.717Z,72.84
2018-12-08T18:19:56.053Z,73.05
2018-12-08T18:22:24.388Z,73.07
2018-12-08T18:24:52.682Z,73.24
2018-12-08T18:27:20.995Z,73.30
2018-12-08T18:29:49.308Z,73.21
2018-12-08T18:32:17.636Z,73.19
2018-12-08T18:34:46.020Z,73.33
2018-12-08T18:37:14.626Z,73.39
2018-12-08T18:39:42.945Z,73.38
2018-12-08T18:42:11.676Z,73.45
2018-12-08T18:45:02.360Z,73.47
2018-12-08T18:47:27.354Z,73.28
2018-12-08T18:49:55.345Z,73.28
2018-12-08T18:52:23.660Z,73.25
2018-12-08T18:54:51.988Z,73.29
2018-12-08T18:57:20.339Z,72.98
2018-12-08T18:59:48.650Z,72.90
2018-12-08T19:02:16.968Z,72.90
2018-12-08T19:04:45.401Z,72.88
2018-12-08T19:07:13.741Z,72.88
2018-12-08T19:09:42.050Z,72.83
2018-12-08T19:12:10.357Z,72.86
2018-12-08T19:14:38.830Z,72.76
2018-12-08T19:17:07.146Z,72.84
2018-12-08T19:19:35.478Z,72.77
2018-12-08T19:22:03.826Z,72.75
2018-12-08T19:24:32.130Z,72.71
2018-12-08T19:27:00.455Z,72.64
2018-12-08T19:29:28.783Z,72.63
2018-12-08T19:31:57.108Z,72.61
2018-12-08T19:34:25.451Z,72.62
2018-12-08T19:36:54.907Z,72.59
2018-12-08T19:39:23.283Z,72.55
2018-12-08T19:41:51.631Z,72.56
2018-12-08T19:44:20.070Z,72.53
2018-12-08T19:46:48.858Z,72.48
2018-12-08T19:49:17.249Z,72.45
2018-12-08T19:51:45.575Z,72.51
2018-12-08T19:54:13.964Z,72.48
2018-12-08T19:56:42.518Z,72.46
2018-12-08T19:59:10.984Z,72.37
2018-12-08T20:01:39.447Z,72.34
2018-12-08T20:04:08.531Z,72.31
2018-12-08T20:06:37.028Z,72.44
2018-12-08T20:09:05.933Z,72.42
2018-12-08T20:11:34.573Z,72.36
2018-12-08T20:14:04.390Z,72.40
2018-12-08T20:16:32.711Z,72.44
2018-12-08T20:19:02.759Z,72.39
2018-12-08T20:21:31.230Z,72.59
2018-12-08T20:23:59.612Z,72.56
2018-12-08T20:26:28.126Z,72.69
2018-12-08T20:28:56.717Z,72.64
2018-12-08T20:31:25.173Z,72.68
2018-12-08T20:33:54.472Z,72.83
2018-12-08T20:36:22.818Z,72.82
2018-12-08T20:38:51.495Z,73.03
2018-12-08T20:41:20.820Z,73.15
2018-12-08T20:43:49.157Z,73.28
2018-12-08T20:46:17.574Z,73.47
2018-12-08T20:48:46.639Z,73.54
2018-12-08T20:51:15.000Z,73.78
2018-12-08T20:53:43.365Z,74.10
2018-12-08T20:56:11.686Z,74.43
2018-12-08T20:58:39.999Z,74.56
2018-12-08T21:01:08.710Z,74.63
2018-12-08T21:03:37.037Z,74.97
2018-12-08T21:06:05.526Z,75.14
2018-12-08T21:08:33.857Z,75.28
2018-12-08T21:11:02.208Z,75.48
2018-12-08T21:13:30.592Z,75.47
2018-12-08T21:15:58.909Z,75.66
2018-12-08T21:18:27.260Z,75.66
2018-12-08T21:20:55.578Z,75.75
2018-12-08T21:23:24.840Z,75.70
2018-12-08T21:25:53.133Z,75.77
2018-12-08T21:28:21.457Z,75.87
2018-12-08T21:30:49.845Z,75.83
2018-12-08T21:33:18.194Z,75.91
2018-12-08T21:35:46.482Z,75.96
2018-12-08T21:38:14.811Z,76.01
2018-12-08T21:40:43.136Z,76.08
2018-12-08T21:43:11.501Z,76.10
2018-12-08T21:45:39.883Z,76.33
2018-12-08T21:48:08.194Z,76.47
2018-12-08T21:50:36.559Z,76.64
2018-12-08T21:53:04.883Z,76.72
2018-12-08T21:55:33.215Z,76.70
2018-12-08T21:58:01.606Z,76.74
2018-12-08T22:00:29.937Z,76.81
2018-12-08T22:02:58.371Z,76.84
2018-12-08T22:05:26.679Z,76.91
2018-12-08T22:07:55.130Z,76.89
2018-12-08T22:10:23.443Z,76.92
2018-12-08T22:12:52.083Z,76.93
2018-12-08T22:15:20.393Z,76.83
2018-12-08T22:17:48.738Z,76.91
2018-12-08T22:20:17.069Z,77.04
2018-12-08T22:22:45.393Z,77.00
2018-12-08T22:25:13.742Z,77.04
2018-12-08T22:27:42.053Z,77.16
2018-12-08T22:30:10.358Z,77.23
2018-12-08T22:32:38.682Z,77.22
2018-12-08T22:35:07.020Z,77.27
2018-12-08T22:37:35.382Z,77.35
2018-12-08T22:40:03.694Z,77.34
2018-12-08T22:42:32.116Z,77.50
2018-12-08T22:45:00.450Z,77.54
2018-12-08T22:47:28.776Z,77.69
2018-12-08T22:49:57.094Z,77.79
2018-12-08T22:52:25.404Z,77.88
2018-12-08T22:54:53.736Z,78.03
2018-12-08T22:57:22.408Z,78.07
2018-12-08T22:59:50.701Z,78.10
2018-12-08T23:02:19.101Z,78.25
2018-12-08T23:04:47.408Z,78.17
2018-12-08T23:07:15.718Z,78.21
2018-12-08T23:09:44.104Z,78.28
2018-12-08T23:12:12.407Z,78.16
2018-12-08T23:14:41.275Z,78.30
2018-12-08T23:17:09.612Z,78.35
2018-12-08T23:19:38.242Z,78.41
2018-12-08T23:22:06.560Z,78.53
2018-12-08T23:24:35.152Z,78.74
2018-12-08T23:27:03.509Z,78.90
2018-12-08T23:29:31.825Z,79.08
2018-12-08T23:32:00.275Z,79.16
2018-12-08T23:34:28.583Z,79.43
2018-12-08T23:36:57.223Z,79.81
2018-12-08T23:39:25.522Z,79.82
2018-12-08T23:41:53.844Z,79.95
2018-12-08T23:44:22.155Z,79.80
2018-12-08T23:46:50.473Z,79.92
2018-12-08T23:49:18.785Z,80.18
2018-12-08T23:51:47.195Z,80.25
2018-12-08T23:54:15.765Z,80.16
2018-12-08T23:56:44.411Z,80.08
2018-12-08T23:59:13.506Z,80.12
